createdAt,value
2022-08-25T00:00:21.481Z,0.00
2022-08-25T00:03:08.510Z,0.00
2022-08-25T00:05:36.550Z,0.00
2022-08-25T00:08:06.593Z,0.00
2022-08-25T00:10:36.391Z,0.00
2022-08-25T00:13:05.169Z,0.00
2022-08-25T00:15:34.107Z,0.00
2022-08-25T00:18:02.327Z,0.00
2022-08-25T00:20:33.036Z,0.00
2022-08-25T00:23:01.610Z,0.00
2022-08-25T00:25:29.779Z,0.00
2022-08-25T00:27:59.065Z,0.00
2022-08-25T00:30:26.978Z,0.00
2022-08-25T00:32:57.181Z,0.00
2022-08-25T00:35:26.277Z,0.00
2022-08-25T00:37:55.007Z,0.00
2022-08-25T00:40:24.379Z,0.00
2022-08-25T00:42:54.515Z,0.00
2022-08-25T00:45:23.251Z,0.00
2022-08-25T00:47:51.054Z,0.00
2022-08-25T00:50:19.875Z,0.00
2022-08-25T00:52:53.985Z,0.00
2022-08-25T00:55:25.364Z,0.00
2022-08-25T00:57:57.104Z,0.00
2022-08-25T01:00:33.029Z,0.00
2022-08-25T01:03:00.832Z,0.00
2022-08-25T01:05:29.466Z,0.00
2022-08-25T01:07:58.763Z,0.00
2022-08-25T01:10:27.829Z,0.00
2022-08-25T01:13:16.364Z,0.00
2022-08-25T01:15:46.619Z,0.00
2022-08-25T01:18:15.397Z,0.00
2022-08-25T01:20:43.636Z,0.00
2022-08-25T01:23:11.351Z,0.00
2022-08-25T01:25:53.615Z,0.00
2022-08-25T01:28:21.515Z,0.00
2022-08-25T01:30:50.146Z,0.00
2022-08-25T01:33:19.080Z,0.00
2022-08-25T01:35:47.237Z,0.00
2022-08-25T01:38:15.463Z,0.00
2022-08-25T01:40:43.227Z,0.00
2022-08-25T01:43:11.716Z,0.00
2022-08-25T01:45:42.743Z,0.00
2022-08-25T01:48:11.851Z,0.00
2022-08-25T01:50:40.546Z,0.00
2022-08-25T01:53:28.832Z,0.00
2022-08-25T01:56:02.697Z,0.00
2022-08-25T01:58:35.752Z,0.00
2022-08-25T02:01:06.935Z,0.00
2022-08-25T02:03:41.184Z,0.00
2022-08-25T02:06:15.152Z,0.00
2022-08-25T02:08:43.569Z,0.00
2022-08-25T02:11:13.746Z,0.00
2022-08-25T02:13:42.417Z,0.00
2022-08-25T02:16:10.970Z,0.00
2022-08-25T02:18:38.627Z,0.00
2022-08-25T02:21:06.448Z,0.00
2022-08-25T02:23:34.153Z,0.00
2022-08-25T02:26:02.109Z,0.00
2022-08-25T02:28:29.931Z,0.00
2022-08-25T02:31:01.670Z,0.00
2022-08-25T02:33:29.679Z,0.00
2022-08-25T02:35:59.139Z,0.00
2022-08-25T02:38:28.027Z,0.00
2022-08-25T02:40:59.990Z,0.00
2022-08-25T02:43:28.470Z,0.00
2022-08-25T02:45:56.558Z,0.00
2022-08-25T02:48:24.456Z,0.00
2022-08-25T02:50:52.816Z,0.00
2022-08-25T02:53:21.600Z,0.00
2022-08-25T02:55:49.253Z,0.00
2022-08-25T02:58:16.906Z,0.00
2022-08-25T03:00:46.267Z,0.00
2022-08-25T03:03:14.383Z,0.00
2022-08-25T03:05:42.261Z,0.00
2022-08-25T03:08:10.986Z,0.00
2022-08-25T03:10:39.025Z,0.00
2022-08-25T03:13:06.805Z,0.00
2022-08-25T03:15:37.786Z,0.00
2022-08-25T03:18:08.704Z,0.00
2022-08-25T03:20:36.683Z,0.00
2022-08-25T03:23:06.102Z,0.00
2022-08-25T03:25:53.037Z,0.00
2022-08-25T03:28:25.001Z,0.00
2022-08-25T03:31:00.271Z,0.00
2022-08-25T03:33:29.471Z,0.00
2022-08-25T03:35:58.091Z,0.00
2022-08-25T03:38:26.893Z,0.00
2022-08-25T03:40:54.812Z,0.00
2022-08-25T03:43:22.488Z,0.00
2022-08-25T03:45:50.340Z,0.00
2022-08-25T03:48:18.603Z,0.00
2022-08-25T03:50:51.807Z,0.00
2022-08-25T03:53:20.592Z,0.00
2022-08-25T03:55:48.624Z,0.00
2022-08-25T03:58:17.084Z,0.00
2022-08-25T04:00:45.080Z,0.00
2022-08-25T04:03:12.802Z,0.00
2022-08-25T04:05:40.865Z,0.10
2022-08-25T04:08:09.179Z,0.00
2022-08-25T04:10:37.252Z,0.10
2022-08-25T04:13:06.544Z,0.00
2022-08-25T04:15:34.690Z,0.00
2022-08-25T04:18:02.471Z,0.00
2022-08-25T04:20:30.356Z,0.00
2022-08-25T04:23:01.304Z,0.00
2022-08-25T04:25:29.060Z,0.00
2022-08-25T04:27:57.654Z,0.00
2022-08-25T04:30:25.342Z,0.00
2022-08-25T04:32:52.978Z,0.20
2022-08-25T04:35:22.332Z,0.00
2022-08-25T04:37:50.277Z,0.00
2022-08-25T04:40:18.401Z,0.00
2022-08-25T04:42:48.239Z,0.00
2022-08-25T04:45:16.114Z,0.00
2022-08-25T04:50:12.806Z,0.00
2022-08-25T04:52:41.057Z,0.00
2022-08-25T04:55:09.124Z,0.00
2022-08-25T04:57:38.075Z,0.00
2022-08-25T05:00:07.297Z,0.00
2022-08-25T05:02:35.980Z,0.10
2022-08-25T05:07:34.533Z,0.00
2022-08-25T05:10:02.171Z,0.00
2022-08-25T05:12:31.060Z,0.00
2022-08-25T05:15:21.006Z,0.00
2022-08-25T05:17:51.590Z,0.10
2022-08-25T05:20:21.820Z,0.00
2022-08-25T05:22:49.562Z,0.00
2022-08-25T05:25:18.808Z,0.00
2022-08-25T05:27:46.582Z,0.10
2022-08-25T05:30:14.375Z,0.00
2022-08-25T05:32:42.313Z,0.00
2022-08-25T05:35:10.128Z,0.00
2022-08-25T05:37:38.058Z,0.00
2022-08-25T05:42:35.854Z,0.10
2022-08-25T05:45:07.521Z,0.00
2022-08-25T05:47:35.402Z,0.10
2022-08-25T05:50:03.674Z,0.00
2022-08-25T05:52:31.522Z,0.00
2022-08-25T05:55:00.918Z,0.00
2022-08-25T05:57:28.643Z,0.10
2022-08-25T05:59:56.847Z,0.00
2022-08-25T06:02:44.679Z,0.00
2022-08-25T06:05:20.182Z,0.00
2022-08-25T06:07:50.451Z,0.10
2022-08-25T06:10:18.402Z,0.00
2022-08-25T06:12:46.837Z,0.10
2022-08-25T06:15:17.125Z,0.00
2022-08-25T06:17:45.467Z,0.10
2022-08-25T06:20:16.561Z,0.00
2022-08-25T06:22:44.707Z,0.00
2022-08-25T06:25:15.663Z,0.10
2022-08-25T06:27:43.557Z,0.10
2022-08-25T06:30:14.972Z,0.10
2022-08-25T06:32:44.981Z,0.10
2022-08-25T06:35:18.163Z,0.20
2022-08-25T06:37:46.818Z,0.10
2022-08-25T06:40:16.294Z,0.00
2022-08-25T06:42:48.750Z,0.00
2022-08-25T06:45:17.374Z,0.00
2022-08-25T06:47:45.617Z,0.10
2022-08-25T06:50:13.497Z,0.00
2022-08-25T06:52:41.150Z,0.00
2022-08-25T06:55:10.398Z,0.00
2022-08-25T06:57:38.190Z,0.00
2022-08-25T07:00:08.508Z,0.00
2022-08-25T07:02:38.355Z,0.10
2022-08-25T07:05:08.265Z,0.10
2022-08-25T07:07:43.674Z,0.00
2022-08-25T07:10:13.192Z,0.00
2022-08-25T07:15:23.987Z,0.10
2022-08-25T07:17:51.798Z,0.10
2022-08-25T07:22:54.288Z,0.00
2022-08-25T07:25:21.942Z,0.00
2022-08-25T07:27:49.838Z,0.10
2022-08-25T07:30:18.892Z,0.00
2022-08-25T07:32:48.139Z,0.00
2022-08-25T07:35:26.298Z,0.00
2022-08-25T07:37:57.133Z,0.10
2022-08-25T07:40:31.865Z,0.10
2022-08-25T07:43:04.048Z,0.00
2022-08-25T07:45:35.183Z,0.00
2022-08-25T07:48:05.876Z,0.00
2022-08-25T07:50:35.775Z,0.10
2022-08-25T07:53:03.450Z,0.00
2022-08-25T07:55:31.971Z,0.00
2022-08-25T08:00:29.999Z,0.00
2022-08-25T08:02:59.860Z,0.10
2022-08-25T08:05:28.074Z,0.10
2022-08-25T08:07:56.761Z,0.10
2022-08-25T08:10:47.815Z,0.10
2022-08-25T08:13:18.023Z,0.10
2022-08-25T08:15:47.932Z,0.10
2022-08-25T08:18:16.492Z,0.10
2022-08-25T08:20:46.649Z,0.00
2022-08-25T08:23:15.795Z,0.00
2022-08-25T08:25:44.299Z,0.00
2022-08-25T08:28:12.351Z,0.10
2022-08-25T08:30:53.467Z,0.10
2022-08-25T08:33:22.838Z,0.10
2022-08-25T08:35:59.066Z,0.10
2022-08-25T08:38:27.820Z,0.10
2022-08-25T08:42:07.153Z,0.10
2022-08-25T08:44:28.265Z,0.10
2022-08-25T08:47:13.600Z,0.10
2022-08-25T08:50:06.254Z,0.20
2022-08-25T08:52:44.947Z,0.20
2022-08-25T08:55:41.710Z,0.20
2022-08-25T08:58:16.036Z,0.30
2022-08-25T09:00:52.602Z,0.40
2022-08-25T09:03:30.180Z,0.50
2022-08-25T09:06:06.913Z,0.80
2022-08-25T09:08:36.904Z,1.10
2022-08-25T09:11:31.897Z,1.50
2022-08-25T09:14:12.868Z,2.00
2022-08-25T09:17:01.696Z,3.10
2022-08-25T09:19:59.411Z,4.60
2022-08-25T09:22:33.677Z,7.30
2022-08-25T09:25:29.529Z,10.50
2022-08-25T09:28:21.083Z,15.40
2022-08-25T09:30:57.501Z,22.10
2022-08-25T09:33:28.965Z,30.30
2022-08-25T09:35:57.749Z,37.90
2022-08-25T09:38:28.971Z,47.90
2022-08-25T09:41:00.784Z,57.50
2022-08-25T09:43:28.759Z,68.00
2022-08-25T09:46:15.374Z,80.60
2022-08-25T09:48:55.921Z,95.90
2022-08-25T09:51:30.170Z,98.80
2022-08-25T09:54:13.030Z,91.90
2022-08-25T09:56:50.069Z,88.60
2022-08-25T09:59:34.156Z,78.70
2022-08-25T10:02:24.066Z,75.50
2022-08-25T10:04:52.783Z,73.70
2022-08-25T10:07:20.446Z,78.30
2022-08-25T10:09:57.704Z,83.10
2022-08-25T10:12:42.476Z,91.60
2022-08-25T10:15:29.905Z,98.10
2022-08-25T10:18:17.608Z,108.60
2022-08-25T10:21:01.631Z,119.90
2022-08-25T10:23:31.511Z,129.00
2022-08-25T10:26:05.084Z,135.20
2022-08-25T10:28:48.179Z,146.00
2022-08-25T10:33:59.800Z,151.20
2022-08-25T10:36:31.993Z,149.20
2022-08-25T10:39:01.913Z,151.90
2022-08-25T10:41:57.855Z,158.30
2022-08-25T10:45:38.844Z,161.70
2022-08-25T10:48:36.071Z,157.40
2022-08-25T10:51:28.478Z,134.00
2022-08-25T10:56:36.913Z,99.60
2022-08-25T11:01:55.349Z,54.90
2022-08-25T11:04:40.142Z,39.30
2022-08-25T11:07:33.772Z,24.40
2022-08-25T11:10:10.344Z,20.50
2022-08-25T11:12:43.590Z,16.60
2022-08-25T11:15:18.166Z,14.40
2022-08-25T11:17:57.151Z,14.20
2022-08-25T11:20:33.417Z,13.20
2022-08-25T11:23:12.081Z,11.50
2022-08-25T11:25:51.349Z,8.70
2022-08-25T11:28:30.628Z,6.90
2022-08-25T11:31:00.188Z,5.20
2022-08-25T11:33:30.606Z,4.00
2022-08-25T11:36:05.548Z,3.00
2022-08-25T11:38:52.907Z,2.20
2022-08-25T11:41:38.847Z,1.80
2022-08-25T11:46:50.233Z,1.20
2022-08-25T11:49:46.462Z,1.00
2022-08-25T11:52:34.989Z,0.80
2022-08-25T11:55:33.655Z,0.70
2022-08-25T11:58:41.435Z,0.50
2022-08-25T12:01:29.852Z,0.50
2022-08-25T12:04:44.244Z,0.40
2022-08-25T12:07:20.195Z,0.30
2022-08-25T12:09:55.453Z,0.30
2022-08-25T12:12:38.784Z,0.20
2022-08-25T12:15:18.817Z,0.20
2022-08-25T12:18:13.427Z,0.20
2022-08-25T12:20:53.565Z,0.20
2022-08-25T12:23:31.604Z,0.10
2022-08-25T12:26:03.977Z,0.10
2022-08-25T12:28:39.179Z,0.10
2022-08-25T12:31:16.739Z,0.10
2022-08-25T12:34:28.995Z,0.10
2022-08-25T12:37:02.702Z,0.10
2022-08-25T12:42:25.345Z,0.10
2022-08-25T12:45:38.607Z,0.10
2022-08-25T12:48:27.713Z,0.10
2022-08-25T12:51:19.997Z,0.10
2022-08-25T12:53:54.724Z,0.10
2022-08-25T12:56:47.671Z,0.10
2022-08-25T12:59:40.518Z,0.10
2022-08-25T13:02:26.533Z,0.00
2022-08-25T13:05:03.738Z,0.00
2022-08-25T13:07:59.446Z,0.00
2022-08-25T13:10:44.787Z,0.10
2022-08-25T13:13:58.629Z,0.00
2022-08-25T13:16:29.814Z,0.10
2022-08-25T13:19:01.682Z,0.00
2022-08-25T13:21:42.362Z,0.00
2022-08-25T13:24:18.226Z,0.00
2022-08-25T13:26:48.837Z,0.00
2022-08-25T13:29:30.415Z,0.00
2022-08-25T13:32:09.342Z,0.00
2022-08-25T13:34:42.790Z,0.00
2022-08-25T13:37:29.637Z,0.00
2022-08-25T13:40:12.388Z,0.00
2022-08-25T13:42:42.415Z,0.00
2022-08-25T13:45:17.954Z,0.00
2022-08-25T13:47:47.308Z,0.00
2022-08-25T13:50:37.064Z,0.00
2022-08-25T13:53:13.953Z,0.00
2022-08-25T13:55:59.397Z,0.00
2022-08-25T13:58:39.321Z,0.00
2022-08-25T14:01:52.224Z,0.00
2022-08-25T14:04:32.380Z,0.00
2022-08-25T14:07:23.354Z,0.00
2022-08-25T14:10:06.753Z,0.00
2022-08-25T14:12:44.787Z,0.00
2022-08-25T14:15:22.030Z,0.00
2022-08-25T14:18:02.363Z,0.00
2022-08-25T14:20:31.961Z,0.00
2022-08-25T14:23:05.392Z,0.00
2022-08-25T14:28:14.015Z,0.00
2022-08-25T14:31:08.808Z,0.00
2022-08-25T14:33:40.703Z,0.00
2022-08-25T14:36:08.842Z,0.00
2022-08-25T14:38:39.016Z,0.00
2022-08-25T14:43:43.772Z,0.00
2022-08-25T14:46:20.633Z,0.00
2022-08-25T14:48:54.398Z,0.00
2022-08-25T14:51:24.184Z,0.00
2022-08-25T14:53:57.281Z,0.00
2022-08-25T14:56:25.317Z,0.00
2022-08-25T14:58:57.398Z,0.00
2022-08-25T15:01:30.030Z,0.00
2022-08-25T15:04:13.370Z,0.00
2022-08-25T15:06:43.853Z,0.00
2022-08-25T15:09:16.326Z,0.00
2022-08-25T15:11:46.570Z,0.00
2022-08-25T15:14:16.173Z,0.00
2022-08-25T15:16:51.321Z,0.00
2022-08-25T15:19:21.634Z,0.00
2022-08-25T15:21:51.509Z,0.00
2022-08-25T15:24:20.963Z,0.00
2022-08-25T15:29:29.653Z,0.00
2022-08-25T15:31:59.706Z,0.00
2022-08-25T15:34:28.879Z,0.00
2022-08-25T15:36:58.440Z,0.00
2022-08-25T15:39:27.854Z,0.00
2022-08-25T15:41:57.171Z,0.00
2022-08-25T15:44:29.460Z,0.00
2022-08-25T15:46:59.012Z,0.00
2022-08-25T15:49:29.615Z,0.00
2022-08-25T15:51:59.312Z,0.00
2022-08-25T15:54:28.368Z,0.00
2022-08-25T15:56:58.827Z,0.00
2022-08-25T15:59:28.598Z,0.00
2022-08-25T16:01:57.006Z,0.00
2022-08-25T16:04:27.421Z,0.00
2022-08-25T16:06:55.592Z,0.00
2022-08-25T16:09:23.931Z,0.00
2022-08-25T16:11:57.622Z,0.00
2022-08-25T16:14:27.671Z,0.00
2022-08-25T16:16:58.337Z,0.00
2022-08-25T16:19:28.672Z,0.00
2022-08-25T16:21:57.849Z,0.00
2022-08-25T16:24:26.291Z,0.00
2022-08-25T16:27:00.158Z,0.00
2022-08-25T16:29:43.785Z,0.00
2022-08-25T16:32:13.843Z,0.00
2022-08-25T16:34:42.329Z,0.00
2022-08-25T16:37:10.817Z,0.00
2022-08-25T16:39:43.964Z,0.00
2022-08-25T16:42:12.132Z,0.00
2022-08-25T16:44:40.764Z,0.00
2022-08-25T16:47:10.594Z,0.00
2022-08-25T16:49:42.566Z,0.00
2022-08-25T16:52:29.912Z,0.00
2022-08-25T16:55:15.342Z,0.00
2022-08-25T16:57:47.693Z,0.00
2022-08-25T17:00:22.473Z,0.00
2022-08-25T17:02:54.740Z,0.00
2022-08-25T17:05:22.501Z,0.00
2022-08-25T17:08:11.074Z,0.00
2022-08-25T17:10:41.041Z,0.50
2022-08-25T17:13:11.027Z,0.00
2022-08-25T17:15:43.571Z,0.00
2022-08-25T17:18:13.799Z,0.00
2022-08-25T17:23:12.945Z,0.00
2022-08-25T17:25:43.002Z,0.00
2022-08-25T17:28:12.544Z,0.00
2022-08-25T17:30:43.737Z,0.00
2022-08-25T17:33:14.184Z,0.00
2022-08-25T17:35:55.222Z,0.00
2022-08-25T17:38:28.451Z,0.00
2022-08-25T17:40:59.720Z,0.00
2022-08-25T17:43:28.571Z,0.00
2022-08-25T17:45:59.562Z,0.00
2022-08-25T17:48:28.460Z,0.00
2022-08-25T17:50:58.309Z,0.00
2022-08-25T17:53:26.608Z,0.00
2022-08-25T17:56:00.977Z,0.00
2022-08-25T17:58:30.251Z,0.00
2022-08-25T18:00:58.837Z,0.00
2022-08-25T18:03:27.197Z,0.00
2022-08-25T18:05:55.871Z,0.00
2022-08-25T18:08:32.245Z,0.00
2022-08-25T18:11:04.710Z,0.00
2022-08-25T18:13:32.697Z,0.00
2022-08-25T18:16:00.451Z,0.00
2022-08-25T18:18:28.627Z,0.00
2022-08-25T18:20:56.602Z,0.00
2022-08-25T18:23:24.943Z,0.00
2022-08-25T18:25:53.248Z,0.00
2022-08-25T18:31:06.960Z,0.00
2022-08-25T18:33:34.148Z,0.00
2022-08-25T18:38:47.481Z,0.00
2022-08-25T18:41:13.791Z,0.00
2022-08-25T18:43:40.675Z,0.00
2022-08-25T18:46:08.192Z,0.00
2022-08-25T18:48:34.834Z,0.00
2022-08-25T18:51:02.074Z,0.00
2022-08-25T18:53:49.796Z,0.00
2022-08-25T18:56:17.447Z,0.00
2022-08-25T18:58:44.827Z,0.00
2022-08-25T19:01:15.811Z,0.00
2022-08-25T19:03:43.605Z,0.00
2022-08-25T19:06:10.378Z,0.00
2022-08-25T19:08:39.472Z,0.00
2022-08-25T19:11:09.013Z,0.00
2022-08-25T19:13:35.490Z,0.00
2022-08-25T19:16:10.144Z,0.00
2022-08-25T19:18:38.445Z,0.00
2022-08-25T19:21:05.347Z,0.00
2022-08-25T19:23:38.141Z,0.00
2022-08-25T19:26:08.681Z,0.00
2022-08-25T19:28:45.864Z,0.00
2022-08-25T19:31:16.616Z,0.00
2022-08-25T19:33:46.720Z,0.00
2022-08-25T19:36:14.004Z,0.00
2022-08-25T19:38:40.917Z,0.00
2022-08-25T19:41:14.099Z,0.00
2022-08-25T19:43:56.197Z,0.00
2022-08-25T19:46:33.223Z,0.00
2022-08-25T19:49:36.875Z,0.00
2022-08-25T19:52:06.559Z,0.00
2022-08-25T19:54:44.224Z,0.00
2022-08-25T19:57:12.668Z,0.00
2022-08-25T19:59:43.155Z,0.00
2022-08-25T20:02:20.209Z,0.00
2022-08-25T20:04:51.492Z,0.00
2022-08-25T20:07:20.496Z,0.10
2022-08-25T20:09:47.537Z,0.00
2022-08-25T20:14:41.524Z,0.00
2022-08-25T20:17:14.508Z,0.00
2022-08-25T20:19:57.134Z,0.00
2022-08-25T20:22:26.961Z,0.00
2022-08-25T20:25:07.342Z,0.10
2022-08-25T20:27:52.869Z,0.00
2022-08-25T20:30:27.805Z,0.00
2022-08-25T20:32:55.787Z,0.00
2022-08-25T20:35:26.751Z,0.00
2022-08-25T20:37:54.924Z,0.00
2022-08-25T20:40:25.571Z,0.00
2022-08-25T20:42:53.549Z,0.00
2022-08-25T20:45:21.201Z,0.00
2022-08-25T20:47:48.388Z,0.00
2022-08-25T20:50:15.440Z,0.00
2022-08-25T20:52:42.590Z,0.00
2022-08-25T20:55:11.122Z,0.00
2022-08-25T20:57:38.816Z,0.00
2022-08-25T21:00:07.164Z,0.00
2022-08-25T21:02:34.364Z,0.00
2022-08-25T21:05:01.218Z,0.00
2022-08-25T21:07:28.266Z,0.00
2022-08-25T21:09:54.609Z,0.00
2022-08-25T21:12:21.405Z,0.00
2022-08-25T21:14:48.363Z,0.00
2022-08-25T21:17:16.296Z,0.00
2022-08-25T21:19:49.909Z,0.00
2022-08-25T21:22:16.541Z,0.00
2022-08-25T21:24:43.616Z,0.00
2022-08-25T21:27:10.981Z,0.00
2022-08-25T21:29:37.689Z,0.00
2022-08-25T21:32:04.163Z,0.00
2022-08-25T21:34:30.523Z,0.00
2022-08-25T21:36:59.256Z,0.00
2022-08-25T21:39:28.843Z,0.00
2022-08-25T21:41:56.137Z,0.00
2022-08-25T21:44:23.394Z,0.00
2022-08-25T21:46:53.810Z,0.00
2022-08-25T21:49:23.108Z,0.00
2022-08-25T21:51:59.249Z,0.00
2022-08-25T21:54:26.528Z,0.00
2022-08-25T21:56:59.667Z,0.00
2022-08-25T21:59:30.061Z,0.00
2022-08-25T22:02:02.269Z,0.00
2022-08-25T22:04:29.420Z,0.00
2022-08-25T22:06:57.175Z,0.00
2022-08-25T22:09:25.040Z,0.00
2022-08-25T22:11:52.649Z,0.00
2022-08-25T22:14:22.717Z,0.00
2022-08-25T22:16:51.169Z,0.00
2022-08-25T22:19:17.668Z,0.00
2022-08-25T22:21:44.769Z,0.00
2022-08-25T22:24:12.121Z,0.00
2022-08-25T22:26:39.080Z,0.00
2022-08-25T22:29:07.073Z,0.00
2022-08-25T22:31:34.687Z,0.00
2022-08-25T22:34:02.759Z,0.00
2022-08-25T22:36:32.321Z,0.00
2022-08-25T22:41:26.723Z,0.00
2022-08-25T22:43:56.082Z,0.00
2022-08-25T22:46:24.100Z,0.00
2022-08-25T22:48:51.631Z,0.00
2022-08-25T22:51:21.523Z,0.00
2022-08-25T22:53:49.096Z,0.00
2022-08-25T22:56:18.327Z,0.00
2022-08-25T23:01:20.028Z,0.00
2022-08-25T23:03:48.504Z,0.00
2022-08-25T23:06:20.806Z,0.00
2022-08-25T23:08:54.770Z,0.00
2022-08-25T23:11:22.576Z,0.00
2022-08-25T23:13:49.444Z,0.00
2022-08-25T23:16:16.510Z,0.00
2022-08-25T23:18:46.233Z,0.00
2022-08-25T23:21:38.221Z,0.00
2022-08-25T23:24:10.689Z,0.00
2022-08-25T23:29:18.684Z,0.00
2022-08-25T23:31:46.744Z,0.00
2022-08-25T23:34:15.222Z,0.00
2022-08-25T23:36:42.018Z,0.00
2022-08-25T23:39:08.638Z,0.00
2022-08-25T23:41:35.958Z,0.00
2022-08-25T23:44:04.756Z,0.00
2022-08-25T23:46:31.613Z,0.00
2022-08-25T23:48:57.991Z,0.00
2022-08-25T23:51:29.420Z,0.00
2022-08-25T23:53:56.656Z,0.00
2022-08-25T23:56:25.879Z,0.00
2022-08-25T23:58:52.604Z,0.00
